Time;durP1;ratioP1;P1;durP2;ratioP2;P2;SDS_P1;SDS_P2;PMS_P1;PMS_P2;Temp;Humidity;BMP_temperature;BMP_pressure;BME280_temperature;BME280_humidity;BME280_pressure;Samples;Min_cycle;Max_cycle;Signal;HPM_P1;HPM_P2
2022/09/27 00:01:43;;;;;;;;;;;;;;;9.96;100.00;99700.00;5095309;28;20007;-35
2022/09/27 00:04:10;;;;;;;;;;;;;;;9.97;100.00;99704.31;5095710;28;19916;-35
2022/09/27 00:06:35;;;;;;;;;;;;;;;9.96;100.00;99704.59;5095315;28;19916;-35
2022/09/27 00:09:00;;;;;;;;;;;;;;;9.97;100.00;99703.53;5095230;28;20297;-35
2022/09/27 00:11:27;;;;;;;;;;;;;;;9.99;100.00;99712.16;5094484;28;19916;-35
2022/09/27 00:13:54;;;;;;;;;;;;;;;9.98;100.00;99718.66;5094525;28;19923;-35
2022/09/27 00:16:19;;;;;;;;;;;;;;;9.96;100.00;99718.91;5076639;28;19916;-35
2022/09/27 00:18:45;;;;;;;;;;;;;;;9.96;100.00;99724.31;5076704;28;19923;-35
2022/09/27 00:21:11;;;;;;;;;;;;;;;9.97;100.00;99725.94;5094625;28;20288;-35
2022/09/27 00:23:37;;;;;;;;;;;;;;;9.98;100.00;99734.84;5094344;28;20372;-35
2022/09/27 00:26:02;;;;;;;;;;;;;;;9.99;100.00;99731.88;5094586;28;19930;-35
2022/09/27 00:28:28;;;;;;;;;;;;;;;9.99;100.00;99734.59;5094610;28;19916;-35
2022/09/27 00:30:53;;;;;;;;;;;;;;;9.99;100.00;99736.47;5094471;28;19916;-35
2022/09/27 00:33:19;;;;;;;;;;;;;;;9.98;100.00;99724.03;5095539;28;20323;-35
2022/09/27 00:35:45;;;;;;;;;;;;;;;9.97;100.00;99719.72;5094375;28;19967;-35
2022/09/27 00:38:10;;;;;;;;;;;;;;;9.96;100.00;99724.31;5095199;28;19978;-35
2022/09/27 00:40:36;;;;;;;;;;;;;;;9.95;100.00;99728.06;5093848;28;20334;-35
2022/09/27 00:43:01;;;;;;;;;;;;;;;9.95;100.00;99730.75;5094325;28;19916;-35
2022/09/27 00:45:26;;;;;;;;;;;;;;;9.96;100.00;99732.41;5094431;28;20329;-35
2022/09/27 00:47:55;;;;;;;;;;;;;;;9.97;100.00;99741.31;5094154;28;20260;-35
2022/09/27 00:50:20;;;;;;;;;;;;;;;9.95;100.00;99743.44;5093700;28;20364;-35
2022/09/27 00:52:58;;;;;;;;;;;;;;;9.93;100.00;99735.59;5093887;28;20058;-35
2022/09/27 00:55:28;;;;;;;;;;;;;;;9.92;100.00;99739.38;5093786;28;19916;-35
2022/09/27 00:57:53;;;;;;;;;;;;;;;9.91;100.00;99743.16;5094490;28;19916;-35
2022/09/27 01:00:20;;;;;;;;;;;;;;;9.92;100.00;99750.19;5094565;28;19950;-35
2022/09/27 01:02:47;;;;;;;;;;;;;;;9.92;100.00;99750.19;5094551;28;19948;-35
2022/09/27 01:05:13;;;;;;;;;;;;;;;9.92;100.00;99747.50;5093745;28;19920;-35
2022/09/27 01:07:38;;;;;;;;;;;;;;;9.93;100.00;99762.63;5093416;28;20392;-35
2022/09/27 01:10:04;;;;;;;;;;;;;;;9.94;100.00;99752.63;5093739;28;19982;-35
2022/09/27 01:12:38;;;;;;;;;;;;;;;9.94;100.00;99753.44;5094051;28;20418;-35
2022/09/27 01:15:19;;;;;;;;;;;;;;;9.95;100.00;99743.44;5093955;28;19997;-35
2022/09/27 01:17:44;;;;;;;;;;;;;;;9.93;100.00;99734.78;5093911;28;20249;-35
2022/09/27 01:20:38;;;;;;;;;;;;;;;9.94;100.00;99739.13;5093378;28;19949;-35
2022/09/27 01:23:22;;;;;;;;;;;;;;;9.93;100.00;99746.41;5094214;28;19915;-35
2022/09/27 01:25:50;;;;;;;;;;;;;;;9.92;100.00;99741.28;5093160;28;20345;-35
2022/09/27 01:28:18;;;;;;;;;;;;;;;9.91;100.00;99745.03;5093511;28;19916;-35
2022/09/27 01:30:47;;;;;;;;;;;;;;;9.89;100.00;99747.97;5093656;28;19916;-35
2022/09/27 01:33:22;;;;;;;;;;;;;;;9.90;100.00;99756.91;5093660;28;20010;-35
2022/09/27 01:35:59;;;;;;;;;;;;;;;9.87;100.00;99758.22;5093307;28;20015;-35
2022/09/27 01:38:33;;;;;;;;;;;;;;;9.86;100.00;99756.59;5093396;28;19923;-35
2022/09/27 01:40:58;;;;;;;;;;;;;;;9.83;100.00;99751.69;5093892;28;19916;-35
2022/09/27 01:43:30;;;;;;;;;;;;;;;9.80;100.00;99755.72;5093263;28;20398;-35
2022/09/27 01:46:07;;;;;;;;;;;;;;;9.79;100.00;99767.59;5093248;28;19985;-35
2022/09/27 01:48:37;;;;;;;;;;;;;;;9.78;100.00;99759.75;5094090;28;19995;-35
2022/09/27 01:51:15;;;;;;;;;;;;;;;9.76;100.00;99769.97;5093737;28;19999;-35
2022/09/27 01:53:43;;;;;;;;;;;;;;;9.74;100.00;99772.09;5094729;28;19959;-35
2022/09/27 01:56:12;;;;;;;;;;;;;;;9.72;100.00;99768.84;5097236;28;20410;-36
2022/09/27 01:58:51;;;;;;;;;;;;;;;9.70;100.00;99768.28;5097171;28;20288;-35
2022/09/27 02:01:17;;;;;;;;;;;;;;;9.68;100.00;99773.13;5097461;28;19932;-35
2022/09/27 02:03:46;;;;;;;;;;;;;;;9.66;100.00;99762.59;5097344;28;19916;-35
2022/09/27 02:06:15;;;;;;;;;;;;;;;9.64;100.00;99758.47;5079384;28;20032;-35
2022/09/27 02:08:43;;;;;;;;;;;;;;;9.64;100.00;99758.47;5097574;28;19923;-36
2022/09/27 02:11:10;;;;;;;;;;;;;;;9.63;100.00;99751.47;5097652;28;19923;-35
2022/09/27 02:13:52;;;;;;;;;;;;;;;9.61;100.00;99758.97;5097490;28;19928;-35
2022/09/27 02:16:36;;;;;;;;;;;;;;;9.58;100.00;99760.31;5097940;28;19920;-35
2022/09/27 02:19:04;;;;;;;;;;;;;;;9.57;100.00;99766.78;5097517;28;19926;-35
2022/09/27 02:21:43;;;;;;;;;;;;;;;9.54;100.00;99760.00;5096679;28;20387;-35
2022/09/27 02:24:11;;;;;;;;;;;;;;;9.51;100.00;99756.97;5096789;28;20356;-35
2022/09/27 02:26:40;;;;;;;;;;;;;;;9.47;100.00;99762.06;5096636;28;20018;-35
2022/09/27 02:29:11;;;;;;;;;;;;;;;9.43;100.00;99760.94;5097242;28;19916;-35
2022/09/27 02:31:37;;;;;;;;;;;;;;;9.42;100.00;99769.25;5096855;28;19939;-35
2022/09/27 02:34:05;;;;;;;;;;;;;;;9.39;100.00;99764.38;5096800;28;19916;-35
2022/09/27 02:36:31;;;;;;;;;;;;;;;9.39;100.00;99769.78;5096411;28;20014;-35
2022/09/27 02:38:56;;;;;;;;;;;;;;;9.35;100.00;99768.63;5096686;28;19963;-35
2022/09/27 02:41:22;;;;;;;;;;;;;;;9.32;100.00;99772.66;5096378;28;19989;-35
2022/09/27 02:43:50;;;;;;;;;;;;;;;9.32;100.00;99782.59;5096801;28;19917;-35
2022/09/27 02:46:21;;;;;;;;;;;;;;;9.28;100.00;99776.91;5096953;28;19916;-35
2022/09/27 02:48:49;;;;;;;;;;;;;;;9.25;100.00;99783.59;5096209;28;20482;-35
2022/09/27 02:51:14;;;;;;;;;;;;;;;9.21;100.00;99770.84;5096394;28;20364;-35
2022/09/27 02:53:58;;;;;;;;;;;;;;;9.18;100.00;99776.78;5097145;28;19923;-35
2022/09/27 02:56:41;;;;;;;;;;;;;;;9.16;100.00;99778.88;5096352;28;19924;-35
2022/09/27 02:59:26;;;;;;;;;;;;;;;9.12;100.00;99772.34;5096207;28;20006;-35
2022/09/27 03:02:11;;;;;;;;;;;;;;;9.08;100.00;99773.91;5095550;28;19916;-35
2022/09/27 03:04:39;;;;;;;;;;;;;;;9.03;100.00;99772.78;5095759;28;20341;-35
2022/09/27 03:07:05;;;;;;;;;;;;;;;9.01;100.00;99764.09;5078361;28;20003;-35
2022/09/27 03:09:44;;;;;;;;;;;;;;;8.98;100.00;99770.00;5096174;28;20379;-35
2022/09/27 03:12:10;;;;;;;;;;;;;;;8.96;100.00;99774.00;5096094;28;19961;-35
2022/09/27 03:14:35;;;;;;;;;;;;;;;8.93;100.00;99772.63;5096016;28;19916;-35
2022/09/27 03:17:00;;;;;;;;;;;;;;;8.92;100.00;99762.88;5096301;28;20344;-35
2022/09/27 03:19:25;;;;;;;;;;;;;;;8.89;100.00;99763.41;5095973;28;20423;-35
2022/09/27 03:21:50;;;;;;;;;;;;;;;8.89;100.00;99763.41;5095559;28;20269;-35
2022/09/27 03:24:16;;;;;;;;;;;;;;;8.82;100.00;99760.03;5095907;28;20010;-35
2022/09/27 03:26:41;;;;;;;;;;;;;;;8.83;100.00;99761.66;5096380;28;19960;-35
2022/09/27 03:29:06;;;;;;;;;;;;;;;8.82;100.00;99773.50;5096500;28;19916;-35
2022/09/27 03:31:31;;;;;;;;;;;;;;;8.80;100.00;99770.25;5095800;28;19916;-35
2022/09/27 03:33:57;;;;;;;;;;;;;;;8.80;100.00;99781.03;5095409;28;19923;-35
2022/09/27 03:36:22;;;;;;;;;;;;;;;8.78;100.00;99785.84;5095748;28;19920;-35
2022/09/27 03:38:47;;;;;;;;;;;;;;;8.76;100.00;99786.09;5095387;28;19939;-35
2022/09/27 03:41:12;;;;;;;;;;;;;;;8.77;100.00;99795.00;5095440;28;20296;-35
2022/09/27 03:43:37;;;;;;;;;;;;;;;8.77;100.00;99798.50;5095539;28;20360;-35
2022/09/27 03:46:03;;;;;;;;;;;;;;;8.78;100.00;99807.41;5095376;28;19916;-35
2022/09/27 03:48:29;;;;;;;;;;;;;;;8.78;100.00;99810.09;5096111;28;20271;-35
2022/09/27 03:50:55;;;;;;;;;;;;;;;8.79;100.00;99824.41;5095305;28;20333;-35
2022/09/27 03:53:20;;;;;;;;;;;;;;;8.80;100.00;99840.34;5095983;28;19924;-35
2022/09/27 03:55:46;;;;;;;;;;;;;;;8.82;100.00;99845.47;5095009;28;19916;-35
2022/09/27 03:58:12;;;;;;;;;;;;;;;8.84;100.00;99852.28;5095727;28;19962;-35
2022/09/27 04:00:37;;;;;;;;;;;;;;;8.83;100.00;99842.53;5095865;28;19920;-35
2022/09/27 04:03:04;;;;;;;;;;;;;;;8.81;100.00;99841.16;5095095;28;19961;-35
2022/09/27 04:05:29;;;;;;;;;;;;;;;8.75;100.00;99835.69;5096057;28;19916;-35
2022/09/27 04:07:55;;;;;;;;;;;;;;;8.75;100.00;99832.16;5095880;28;20230;-35
2022/09/27 04:10:20;;;;;;;;;;;;;;;8.74;100.00;99835.94;5095126;28;20137;-35
2022/09/27 04:12:45;;;;;;;;;;;;;;;8.75;100.00;99826.78;5095662;28;19916;-35
2022/09/27 04:15:11;;;;;;;;;;;;;;;8.73;100.00;99810.00;5094970;28;20301;-35
2022/09/27 04:17:37;;;;;;;;;;;;;;;8.72;100.00;99803.00;5094287;28;19916;-35
2022/09/27 04:20:03;;;;;;;;;;;;;;;8.71;100.00;99795.97;5094688;28;19923;-35
2022/09/27 04:22:28;;;;;;;;;;;;;;;8.72;100.00;99797.59;5094442;28;19982;-35
2022/09/27 04:24:53;;;;;;;;;;;;;;;8.72;100.00;99795.72;5094713;28;19916;-35
2022/09/27 04:27:20;;;;;;;;;;;;;;;8.73;100.00;99794.66;5094772;28;19920;-35
2022/09/27 04:29:46;;;;;;;;;;;;;;;8.73;100.00;99794.66;5094404;28;20429;-35
2022/09/27 04:32:11;;;;;;;;;;;;;;;8.76;100.00;99801.44;5094669;28;19988;-35
2022/09/27 04:37:21;;;;;;;;;;;;;;;8.76;100.00;99798.75;5094373;28;19966;-35
2022/09/27 04:39:47;;;;;;;;;;;;;;;8.77;100.00;99803.88;5094154;28;19917;-35
2022/09/27 04:42:12;;;;;;;;;;;;;;;8.75;100.00;99799.81;5094407;28;20049;-35
2022/09/27 04:44:37;;;;;;;;;;;;;;;8.75;100.00;99800.63;5094508;28;19916;-35
2022/09/27 04:47:02;;;;;;;;;;;;;;;8.73;100.00;99801.94;5094696;28;20048;-35
2022/09/27 04:49:28;;;;;;;;;;;;;;;8.74;100.00;99811.66;5094390;28;19916;-35
2022/09/27 04:51:53;;;;;;;;;;;;;;;8.72;100.00;99813.78;5094346;28;19923;-35
2022/09/27 04:54:18;;;;;;;;;;;;;;;8.70;100.00;99813.22;5094329;28;19917;-35
2022/09/27 04:56:43;;;;;;;;;;;;;;;8.70;100.00;99819.41;5094039;28;19964;-35
2022/09/27 04:59:08;;;;;;;;;;;;;;;8.70;100.00;99821.31;5075713;28;20329;-35
2022/09/27 05:01:34;;;;;;;;;;;;;;;8.68;100.00;99828.78;5094453;28;19924;-35
2022/09/27 05:03:59;;;;;;;;;;;;;;;8.68;100.00;99842.28;5094424;28;19995;-35
2022/09/27 05:06:26;;;;;;;;;;;;;;;8.66;100.00;99849.78;5093552;28;20118;-35
2022/09/27 05:08:51;;;;;;;;;;;;;;;8.64;100.00;99851.94;5093755;28;20352;-35
2022/09/27 05:11:16;;;;;;;;;;;;;;;8.64;100.00;99860.81;5094507;28;20002;-35
2022/09/27 05:13:42;;;;;;;;;;;;;;;8.63;100.00;99856.47;5093785;28;19916;-35
2022/09/27 05:16:07;;;;;;;;;;;;;;;8.63;100.00;99850.25;5093639;28;19916;-35
2022/09/27 05:18:33;;;;;;;;;;;;;;;8.61;100.00;99847.81;5093955;28;19962;-35
2022/09/27 05:20:58;;;;;;;;;;;;;;;8.61;100.00;99836.22;5093693;28;20301;-35
2022/09/27 05:23:24;;;;;;;;;;;;;;;8.58;100.00;99840.22;5094298;28;19917;-35
2022/09/27 05:25:49;;;;;;;;;;;;;;;8.57;100.00;99832.38;5094062;28;19939;-35
2022/09/27 05:28:14;;;;;;;;;;;;;;;8.54;100.00;99817.53;5094104;28;19923;-35
2022/09/27 05:30:39;;;;;;;;;;;;;;;8.50;100.00;99821.75;5093731;28;19920;-35
2022/09/27 05:33:05;;;;;;;;;;;;;;;8.49;100.00;99825.50;5094037;28;19924;-35
2022/09/27 05:35:30;;;;;;;;;;;;;;;8.47;100.00;99823.06;5093118;28;19920;-35
2022/09/27 05:37:59;;;;;;;;;;;;;;;8.46;100.00;99829.50;5093672;28;19946;-35
2022/09/27 05:40:24;;;;;;;;;;;;;;;8.46;100.00;99839.47;5093275;28;20346;-35
2022/09/27 05:42:53;;;;;;;;;;;;;;;8.45;100.00;99827.06;5093372;28;19967;-35
2022/09/27 05:45:19;;;;;;;;;;;;;;;8.46;100.00;99826.81;5093536;28;19916;-35
2022/09/27 05:48:12;;;;;;;;;;;;;;;8.48;100.00;99826.56;5093826;28;19939;-35
2022/09/27 05:50:38;;;;;;;;;;;;;;;8.48;100.00;99824.69;5089312;28;19923;-35
2022/09/27 05:53:03;;;;;;;;;;;;;;;8.49;100.00;99820.94;5093242;28;20027;-35
2022/09/27 05:55:29;;;;;;;;;;;;;;;8.47;100.00;99812.28;5093425;28;19924;-35
2022/09/27 05:58:01;;;;;;;;;;;;;;;8.46;100.00;99818.72;5093602;28;19923;-34
2022/09/27 06:00:27;;;;;;;;;;;;;;;8.49;100.00;99822.81;5093487;28;20009;-35
2022/09/27 06:02:57;;;;;;;;;;;;;;;8.49;100.00;99823.66;5093562;28;20356;-35
2022/09/27 06:05:23;;;;;;;;;;;;;;;8.49;100.00;99820.94;5093564;28;19969;-35
2022/09/27 06:07:48;;;;;;;;;;;;;;;8.50;100.00;99819.88;5093569;28;19916;-35
2022/09/27 06:10:14;;;;;;;;;;;;;;;8.50;100.00;99825.28;5092957;28;20011;-35
2022/09/27 06:12:39;;;;;;;;;;;;;;;8.51;100.00;99826.91;5093972;28;19973;-35
2022/09/27 06:15:04;;;;;;;;;;;;;;;8.51;100.00;99834.16;5092885;28;19916;-35
2022/09/27 06:17:32;;;;;;;;;;;;;;;8.51;100.00;99851.16;5092892;28;19920;-35
2022/09/27 06:19:57;;;;;;;;;;;;;;;8.54;100.00;99851.72;5093037;28;19978;-35
2022/09/27 06:22:23;;;;;;;;;;;;;;;8.50;100.00;99843.31;5093204;28;20384;-35
2022/09/27 06:24:48;;;;;;;;;;;;;;;8.52;100.00;99841.19;5058549;28;19966;-35
2022/09/27 06:27:13;;;;;;;;;;;;;;;8.50;100.00;99840.63;5092901;28;19920;-35
2022/09/27 06:29:38;;;;;;;;;;;;;;;8.48;100.00;99832.75;5093638;28;19965;-35
2022/09/27 06:32:03;;;;;;;;;;;;;;;8.48;100.00;99843.53;5093813;28;19952;-35
2022/09/27 06:34:29;;;;;;;;;;;;;;;8.47;100.00;99846.47;5093555;28;20007;-35
2022/09/27 06:36:56;;;;;;;;;;;;;;;8.47;100.00;99839.22;5093419;28;19969;-35
2022/09/27 06:39:21;;;;;;;;;;;;;;;8.47;100.00;99831.13;5093752;28;19923;-35
2022/09/27 06:41:47;;;;;;;;;;;;;;;8.45;100.00;99832.44;5096799;28;20415;-35
2022/09/27 06:44:13;;;;;;;;;;;;;;;8.46;100.00;99840.28;5096761;28;19963;-35
2022/09/27 06:46:38;;;;;;;;;;;;;;;8.46;100.00;99842.16;5097540;28;19924;-35
2022/09/27 06:49:05;;;;;;;;;;;;;;;8.47;100.00;99841.91;5096984;28;19920;-35
2022/09/27 06:51:30;;;;;;;;;;;;;;;8.46;100.00;99834.91;5096665;28;19992;-35
2022/09/27 06:53:55;;;;;;;;;;;;;;;8.48;100.00;99842.72;5096908;28;19938;-35
2022/09/27 06:56:20;;;;;;;;;;;;;;;8.49;100.00;99845.19;5096568;28;19916;-35
2022/09/27 07:01:30;;;;;;;;;;;;;;;8.55;100.00;99845.28;5097397;28;19982;-35
2022/09/27 07:03:55;;;;;;;;;;;;;;;8.56;100.00;99849.63;5096884;28;19920;-35
2022/09/27 07:06:22;;;;;;;;;;;;;;;8.55;100.00;99848.81;5096191;28;19972;-35
2022/09/27 07:08:51;;;;;;;;;;;;;;;8.56;100.00;99850.44;5096846;28;19916;-35
2022/09/27 07:11:17;;;;;;;;;;;;;;;8.58;100.00;99853.69;5096554;28;19971;-35
2022/09/27 07:13:43;;;;;;;;;;;;;;;8.60;100.00;99853.47;5096238;28;19966;-35
2022/09/27 07:16:12;;;;;;;;;;;;;;;8.63;100.00;99855.66;5096171;28;19980;-35
2022/09/27 07:18:38;;;;;;;;;;;;;;;8.66;100.00;99857.88;5095951;28;19939;-35
2022/09/27 07:21:03;;;;;;;;;;;;;;;8.68;100.00;99859.25;5096005;28;20291;-35
2022/09/27 07:23:28;;;;;;;;;;;;;;;8.70;100.00;99864.44;5096000;28;19916;-36
2022/09/27 07:25:53;;;;;;;;;;;;;;;8.73;100.00;99861.22;5095943;28;19916;-35
2022/09/27 07:28:19;;;;;;;;;;;;;;;8.76;100.00;99858.88;5096030;28;19916;-35
2022/09/27 07:30:45;;;;;;;;;;;;;;;8.80;100.00;99861.91;5095792;28;20337;-35
2022/09/27 07:33:10;;;;;;;;;;;;;;;8.84;100.00;99873.03;5096347;28;20007;-35
2022/09/27 07:35:41;;;;;;;;;;;;;;;8.85;100.00;99874.66;5095789;28;19916;-35
2022/09/27 07:38:08;;;;;;;;;;;;;;;8.87;100.00;99877.91;5096037;28;19965;-35
2022/09/27 07:40:38;;;;;;;;;;;;;;;8.90;100.00;99875.56;5095731;28;19995;-35
2022/09/27 07:43:04;;;;;;;;;;;;;;;8.93;100.00;99872.38;5096109;28;19923;-35
2022/09/27 07:45:30;;;;;;;;;;;;;;;8.96;100.00;99869.19;5095291;28;19916;-35
2022/09/27 07:47:55;;;;;;;;;;;;;;;8.98;100.00;99880.56;5095842;28;20011;-35
2022/09/27 07:50:20;;;;;;;;;;;;;;;9.00;100.00;99883.81;5094963;28;20002;-35
2022/09/27 07:52:47;;;;;;;;;;;;;;;9.01;100.00;99876.53;5095442;28;20015;-35
2022/09/27 07:55:13;;;;;;;;;;;;;;;8.99;100.00;99879.50;5077666;28;19920;-35
2022/09/27 07:57:39;;;;;;;;;;;;;;;8.99;100.00;99879.50;5095477;28;19954;-35
2022/09/27 08:00:05;;;;;;;;;;;;;;;9.00;100.00;99883.00;5095708;28;20312;-35
2022/09/27 08:02:31;;;;;;;;;;;;;;;9.03;100.00;99888.75;5095206;28;19920;-35
2022/09/27 08:04:57;;;;;;;;;;;;;;;9.03;100.00;99888.75;5094890;28;19916;-35
2022/09/27 08:07:22;;;;;;;;;;;;;;;9.07;100.00;99894.44;5096045;28;19923;-35
2022/09/27 08:09:47;;;;;;;;;;;;;;;9.09;100.00;99891.53;5094894;28;20010;-35
2022/09/27 08:12:12;;;;;;;;;;;;;;;9.10;100.00;99893.97;5094793;28;19951;-35
2022/09/27 08:14:38;;;;;;;;;;;;;;;9.12;100.00;99885.63;5095596;28;20014;-35
2022/09/27 08:17:03;;;;;;;;;;;;;;;9.15;100.00;99885.13;5095000;28;20003;-35
2022/09/27 08:19:28;;;;;;;;;;;;;;;9.17;100.00;99883.81;5094671;28;19922;-35
2022/09/27 08:21:54;;;;;;;;;;;;;;;9.21;100.00;99889.53;5095296;28;19938;-35
2022/09/27 08:24:19;;;;;;;;;;;;;;;9.23;100.00;99888.25;5095332;28;19969;-35
2022/09/27 08:26:45;;;;;;;;;;;;;;;9.26;100.00;99882.34;5095544;28;20356;-35
2022/09/27 08:29:11;;;;;;;;;;;;;;;9.24;100.00;99883.66;5095229;28;19934;-35
2022/09/27 08:31:36;;;;;;;;;;;;;;;9.29;100.00;99899.94;5095211;28;20318;-35
2022/09/27 08:34:02;;;;;;;;;;;;;;;9.33;100.00;99890.28;5094669;28;19928;-35
2022/09/27 08:36:27;;;;;;;;;;;;;;;9.35;100.00;99892.75;5094983;28;19916;-35
2022/09/27 08:38:56;;;;;;;;;;;;;;;9.40;100.00;99892.81;5094545;28;20348;-35
2022/09/27 08:41:48;;;;;;;;;;;;;;;9.45;100.00;99899.09;5094116;28;19916;-35
2022/09/27 08:44:23;;;;;;;;;;;;;;;9.49;100.00;99900.25;5088458;28;19923;-35
2022/09/27 08:47:04;;;;;;;;;;;;;;;9.50;100.00;99909.97;5094897;28;19924;-35
2022/09/27 08:49:37;;;;;;;;;;;;;;;9.50;100.00;99909.97;5095108;28;19916;-35
2022/09/27 08:52:04;;;;;;;;;;;;;;;9.50;100.00;99906.47;5094831;28;20314;-35
2022/09/27 08:54:30;;;;;;;;;;;;;;;9.51;100.00;99911.59;5094265;28;19935;-35
2022/09/27 08:57:03;;;;;;;;;;;;;;;9.51;100.00;99914.31;5094102;28;19916;-35
2022/09/27 08:59:33;;;;;;;;;;;;;;;9.50;100.00;99915.38;5094014;28;19927;-35
2022/09/27 09:01:58;;;;;;;;;;;;;;;9.50;100.00;99922.66;5094008;28;19969;-35
2022/09/27 09:04:31;;;;;;;;;;;;;;;9.49;100.00;99915.63;5094482;28;19916;-35
2022/09/27 09:07:14;;;;;;;;;;;;;;;9.48;100.00;99922.09;5094339;28;20338;-35
2022/09/27 09:09:47;;;;;;;;;;;;;;;9.46;100.00;99921.50;5094609;28;20418;-35
2022/09/27 09:15:24;;;;;;;;;;;;;;;9.42;100.00;99932.00;5093811;28;19923;-35
2022/09/27 09:18:01;;;;;;;;;;;;;;;9.42;100.00;99932.00;5093727;28;19916;-35
2022/09/27 09:20:32;;;;;;;;;;;;;;;9.42;100.00;99933.84;5094671;28;20249;-35
2022/09/27 09:23:16;;;;;;;;;;;;;;;9.43;100.00;99936.31;5094194;28;19916;-35
2022/09/27 09:26:05;;;;;;;;;;;;;;;9.44;100.00;99943.34;5094414;28;19923;-35
2022/09/27 09:28:42;;;;;;;;;;;;;;;9.47;100.00;99937.47;4992006;28;20012;-35
2022/09/27 09:31:26;;;;;;;;;;;;;;;9.50;100.00;99942.38;4992100;28;19918;-35
2022/09/27 09:34:14;;;;;;;;;;;;;;;9.54;100.00;99934.59;4991932;28;20012;-35
2022/09/27 09:36:51;;;;;;;;;;;;;;;9.57;100.00;99936.81;4991740;28;19925;-35
2022/09/27 09:39:23;;;;;;;;;;;;;;;9.58;100.00;99943.03;4991787;28;19918;-35
2022/09/27 09:42:07;;;;;;;;;;;;;;;9.56;100.00;99940.56;4991755;28;20021;-35
2022/09/27 09:44:38;;;;;;;;;;;;;;;9.52;100.00;99944.84;4992588;28;19961;-35
2022/09/27 09:47:10;;;;;;;;;;;;;;;9.51;100.00;99932.38;4992245;28;19924;-35
2022/09/27 09:49:40;;;;;;;;;;;;;;;9.47;100.00;99937.47;4992274;28;19918;-35
2022/09/27 09:52:11;;;;;;;;;;;;;;;9.45;100.00;99936.06;4992188;28;19968;-35
2022/09/27 09:54:40;;;;;;;;;;;;;;;9.39;100.00;99932.47;4992536;28;20360;-35
2022/09/27 09:57:05;;;;;;;;;;;;;;;9.35;100.00;99934.03;4992429;28;19925;-35
2022/09/27 09:59:36;;;;;;;;;;;;;;;9.33;100.00;99941.56;4992053;28;19921;-35
2022/09/27 10:02:22;;;;;;;;;;;;;;;9.32;100.00;99931.84;4991680;28;20322;-35
2022/09/27 10:04:47;;;;;;;;;;;;;;;9.31;100.00;99935.56;5013055;28;19927;-35
2022/09/27 10:07:13;;;;;;;;;;;;;;;9.28;100.00;99938.78;5093446;28;19916;-35
2022/09/27 10:09:39;;;;;;;;;;;;;;;9.27;100.00;99937.97;5093610;28;19916;-35
2022/09/27 10:12:04;;;;;;;;;;;;;;;9.31;100.00;99938.28;5094049;28;19927;-35
2022/09/27 10:14:30;;;;;;;;;;;;;;;9.34;100.00;99937.78;5094375;28;19920;-35
2022/09/27 10:17:00;;;;;;;;;;;;;;;9.38;100.00;99932.72;5097401;28;19987;-35
2022/09/27 10:19:29;;;;;;;;;;;;;;;9.42;100.00;99939.25;5097771;28;19966;-35
2022/09/27 10:21:58;;;;;;;;;;;;;;;9.35;100.00;99939.41;5097475;28;19916;-34
2022/09/27 10:24:24;;;;;;;;;;;;;;;9.35;100.00;99939.41;5097121;28;19923;-34
2022/09/27 10:26:50;;;;;;;;;;;;;;;9.34;100.00;99927.00;5097736;28;19916;-33
2022/09/27 10:29:35;;;;;;;;;;;;;;;9.34;100.00;99935.09;5097448;28;19916;-35
2022/09/27 10:32:03;;;;;;;;;;;;;;;9.37;100.00;99939.16;5096510;28;19920;-34
2022/09/27 10:34:39;;;;;;;;;;;;;;;9.40;100.00;99934.09;5096661;28;19923;-35
2022/09/27 10:37:10;;;;;;;;;;;;;;;9.41;100.00;99941.13;5097220;28;20322;-34
2022/09/27 10:39:36;;;;;;;;;;;;;;;9.43;100.00;99939.03;5096546;28;19916;-35
2022/09/27 10:42:01;;;;;;;;;;;;;;;9.46;100.00;99943.09;5096455;28;20333;-34
2022/09/27 10:44:26;;;;;;;;;;;;;;;9.46;100.00;99940.41;5096730;28;19923;-35
2022/09/27 10:46:54;;;;;;;;;;;;;;;9.49;100.00;99937.22;5097495;28;19917;-35
2022/09/27 10:49:28;;;;;;;;;;;;;;;9.50;100.00;99936.97;5096324;28;19916;-35
2022/09/27 10:51:55;;;;;;;;;;;;;;;9.54;100.00;99943.50;5096397;28;19923;-35
2022/09/27 10:54:20;;;;;;;;;;;;;;;9.56;100.00;99940.56;5096663;28;19931;-35
2022/09/27 10:56:53;;;;;;;;;;;;;;;9.57;100.00;99939.53;5096763;28;19916;-35
2022/09/27 10:59:18;;;;;;;;;;;;;;;9.60;100.00;99939.00;5096467;28;19916;-35
2022/09/27 11:01:44;;;;;;;;;;;;;;;9.63;100.00;99946.63;5097214;28;20363;-34
2022/09/27 11:04:22;;;;;;;;;;;;;;;9.65;100.00;99943.66;5096075;28;19916;-34
2022/09/27 11:06:47;;;;;;;;;;;;;;;9.67;100.00;99941.56;5096920;28;19923;-35
2022/09/27 11:09:18;;;;;;;;;;;;;;;9.70;100.00;99939.16;5096793;28;19920;-34
2022/09/27 11:11:44;;;;;;;;;;;;;;;9.74;100.00;99943.00;5097041;28;19916;-35
2022/09/27 11:14:23;;;;;;;;;;;;;;;9.81;100.00;99942.84;5096149;28;20385;-35
2022/09/27 11:16:51;;;;;;;;;;;;;;;9.87;100.00;99941.84;5096331;28;19916;-34
2022/09/27 11:19:16;;;;;;;;;;;;;;;9.90;100.00;99935.94;5096130;28;20406;-34
2022/09/27 11:21:44;;;;;;;;;;;;;;;9.90;100.00;99933.25;5096618;28;19916;-35
2022/09/27 11:24:37;;;;;;;;;;;;;;;9.90;100.00;99930.53;5095953;28;19916;-34
2022/09/27 11:27:22;;;;;;;;;;;;;;;9.92;100.00;99935.72;5095952;28;20425;-34
2022/09/27 11:30:07;;;;;;;;;;;;;;;9.95;100.00;99933.31;5096147;28;20356;-35
2022/09/27 11:32:42;;;;;;;;;;;;;;;9.97;100.00;99928.50;5095293;28;19959;-35
2022/09/27 11:35:22;;;;;;;;;;;;;;;10.03;100.00;99929.38;5096370;28;20281;-35
2022/09/27 11:37:47;;;;;;;;;;;;;;;10.07;100.00;99925.91;5096279;28;20015;-35
2022/09/27 11:40:19;;;;;;;;;;;;;;;10.09;100.00;99916.75;5077522;28;19952;-35
2022/09/27 11:42:57;;;;;;;;;;;;;;;10.10;100.00;99919.19;5096430;28;20288;-35
2022/09/27 11:45:25;;;;;;;;;;;;;;;10.13;100.00;99907.09;5095315;28;20011;-35
2022/09/27 11:47:53;;;;;;;;;;;;;;;10.16;100.00;99914.69;5096094;28;20462;-34
2022/09/27 11:50:25;;;;;;;;;;;;;;;10.17;100.00;99914.44;5095494;28;19920;-35
2022/09/27 11:52:59;;;;;;;;;;;;;;;10.20;100.00;99913.09;5095974;28;19920;-35
2022/09/27 11:55:32;;;;;;;;;;;;;;;10.17;100.00;99909.03;5095986;28;19923;-34
2022/09/27 11:58:00;;;;;;;;;;;;;;;10.19;100.00;99917.69;5095650;28;19987;-34
2022/09/27 12:00:33;;;;;;;;;;;;;;;10.21;100.00;99922.88;5095117;28;20386;-34
2022/09/27 12:03:07;;;;;;;;;;;;;;;10.23;100.00;99921.53;5094885;28;19920;-34
2022/09/27 12:05:32;;;;;;;;;;;;;;;10.27;100.00;99909.19;5095552;28;20006;-34
2022/09/27 12:08:03;;;;;;;;;;;;;;;10.32;100.00;99917.34;5095102;28;19951;-34
2022/09/27 12:10:29;;;;;;;;;;;;;;;10.38;100.00;99898.50;5095183;28;19916;-34
2022/09/27 12:12:56;;;;;;;;;;;;;;;10.47;100.00;99907.78;5095463;28;20310;-34
2022/09/27 12:15:24;;;;;;;;;;;;;;;10.58;100.00;99910.34;5095042;28;19924;-34
2022/09/27 12:17:54;;;;;;;;;;;;;;;10.66;100.00;99910.97;5095444;28;20303;-34
2022/09/27 12:20:22;;;;;;;;;;;;;;;10.72;100.00;99909.97;5094878;28;19916;-34
2022/09/27 12:22:59;;;;;;;;;;;;;;;10.76;100.00;99905.69;5095194;28;20276;-34
2022/09/27 12:25:28;;;;;;;;;;;;;;;10.73;100.00;99907.00;5094747;28;19920;-34
2022/09/27 12:28:04;;;;;;;;;;;;;;;10.73;100.00;99904.28;5094887;28;20283;-34
2022/09/27 12:30:32;;;;;;;;;;;;;;;10.65;99.86;99907.47;5095394;28;20280;-34
2022/09/27 12:33:09;;;;;;;;;;;;;;;10.63;99.83;99908.78;5095277;28;20318;-34
2022/09/27 12:35:39;;;;;;;;;;;;;;;10.64;100.00;99911.25;5094874;28;19923;-34
2022/09/27 12:38:07;;;;;;;;;;;;;;;10.68;100.00;99904.22;5093856;28;19923;-34
2022/09/27 12:40:38;;;;;;;;;;;;;;;10.68;100.00;99906.13;5094939;28;19927;-35
2022/09/27 12:43:07;;;;;;;;;;;;;;;10.69;100.00;99895.06;5094254;28;19957;-35
2022/09/27 12:45:32;;;;;;;;;;;;;;;10.75;100.00;99893.22;5094246;28;19923;-34
2022/09/27 12:48:18;;;;;;;;;;;;;;;10.83;100.00;99884.63;5094064;28;20350;-35
2022/09/27 12:50:52;;;;;;;;;;;;;;;10.96;100.00;99900.47;5093585;28;19916;-35
2022/09/27 12:53:22;;;;;;;;;;;;;;;11.01;99.99;99895.09;5094167;28;19923;-36
2022/09/27 12:55:57;;;;;;;;;;;;;;;11.12;99.49;99896.00;5094185;28;19916;-35
2022/09/27 12:58:41;;;;;;;;;;;;;;;11.15;99.61;99894.69;5094186;28;19916;-35
2022/09/27 13:01:12;;;;;;;;;;;;;;;11.17;99.47;99887.91;5076241;28;19952;-35
2022/09/27 13:03:39;;;;;;;;;;;;;;;11.22;99.11;99885.25;5094122;28;19916;-35